AZU5199 SBAQ-SBKP
Flight info
| Callsign | AZU5199 |
|---|---|
| Flight time | 0h 36m |
| Altitude | 7000 |
| Route | MEVUT DCT UTLOT |
| Aircraft | C208/L-SDFGR/S |
Departure
| Time | 2026-05-06 18:25 |
|---|---|
| Airport | Araraquara Airport (SBAQ) |
Arrival
| Time | 2026-05-06 19:01 |
|---|---|
| Airport | Viracopos International Airport (SBKP) |
| Time | Latitude | Longitude | Altitude | Speed | Heading |
|---|---|---|---|---|---|
| 2026-05-06 18:15 | -21.80503 | -48.13959 | 2277 ft | 0 kts | 268° |
| 2026-05-06 18:21 | -21.80503 | -48.13957 | 2277 ft | 2 kts | 268° |
| 2026-05-06 18:21 | -21.80503 | -48.13946 | 2277 ft | 0 kts | 268° |
| 2026-05-06 18:23 | -21.80521 | -48.13953 | 2277 ft | 9 kts | 146° |
| 2026-05-06 18:23 | -21.80545 | -48.13869 | 2277 ft | 14 kts | 96° |
| 2026-05-06 18:23 | -21.80537 | -48.13836 | 2277 ft | 0 kts | 63° |
| 2026-05-06 18:23 | -21.80527 | -48.13817 | 2277 ft | 11 kts | 60° |
| 2026-05-06 18:24 | -21.80536 | -48.13744 | 2279 ft | 9 kts | 150° |
| 2026-05-06 18:24 | -21.80695 | -48.13638 | 2285 ft | 57 kts | 141° |
| 2026-05-06 18:24 | -21.81117 | -48.13346 | 2418 ft | 82 kts | 145° |
| 2026-05-06 18:24 | -21.81610 | -48.13054 | 2682 ft | 86 kts | 146° |
| 2026-05-06 18:25 | -21.81925 | -48.12479 | 2706 ft | 106 kts | 73° |
| 2026-05-06 18:25 | -21.81313 | -48.12056 | 2846 ft | 117 kts | 360° |
| 2026-05-06 18:25 | -21.80602 | -48.12454 | 3148 ft | 122 kts | 314° |
| 2026-05-06 18:25 | -21.80101 | -48.13203 | 3470 ft | 124 kts | 308° |
| 2026-05-06 18:26 | -21.79623 | -48.14011 | 3675 ft | 131 kts | 309° |
| 2026-05-06 18:26 | -21.79096 | -48.14763 | 4069 ft | 124 kts | 310° |
| 2026-05-06 18:26 | -21.78861 | -48.15643 | 4370 ft | 130 kts | 258° |
| 2026-05-06 18:26 | -21.79165 | -48.16554 | 4706 ft | 130 kts | 241° |
| 2026-05-06 18:27 | -21.79783 | -48.17241 | 5030 ft | 129 kts | 209° |
| 2026-05-06 18:27 | -21.80609 | -48.17549 | 5362 ft | 124 kts | 180° |
| 2026-05-06 18:27 | -21.81480 | -48.17561 | 5680 ft | 126 kts | 179° |
| 2026-05-06 18:27 | -21.82356 | -48.17617 | 5980 ft | 127 kts | 180° |
| 2026-05-06 18:28 | -21.83238 | -48.17679 | 6265 ft | 127 kts | 180° |
| 2026-05-06 18:28 | -21.84112 | -48.17745 | 6564 ft | 128 kts | 181° |
| 2026-05-06 18:28 | -21.85003 | -48.17816 | 6806 ft | 129 kts | 181° |
| 2026-05-06 18:28 | -21.85905 | -48.17887 | 6995 ft | 134 kts | 179° |
| 2026-05-06 18:29 | -21.86839 | -48.17605 | 7007 ft | 146 kts | 148° |
| 2026-05-06 18:29 | -21.87766 | -48.17072 | 7015 ft | 155 kts | 150° |
| 2026-05-06 18:29 | -21.88764 | -48.16576 | 7009 ft | 161 kts | 153° |
| 2026-05-06 18:29 | -21.89810 | -48.16091 | 7006 ft | 166 kts | 154° |
| 2026-05-06 18:30 | -21.90882 | -48.15598 | 7003 ft | 168 kts | 154° |
| 2026-05-06 18:30 | -21.91937 | -48.15099 | 7017 ft | 169 kts | 154° |
| 2026-05-06 18:30 | -21.93036 | -48.14593 | 7009 ft | 173 kts | 154° |
| 2026-05-06 18:30 | -21.94141 | -48.14080 | 7005 ft | 172 kts | 153° |
| 2026-05-06 18:31 | -21.95243 | -48.13566 | 7012 ft | 174 kts | 154° |
| 2026-05-06 18:31 | -21.96360 | -48.13049 | 7004 ft | 175 kts | 154° |
| 2026-05-06 18:31 | -21.97479 | -48.12527 | 7002 ft | 174 kts | 154° |
| 2026-05-06 18:31 | -21.98590 | -48.12015 | 6999 ft | 173 kts | 154° |
| 2026-05-06 18:32 | -21.99693 | -48.11503 | 6998 ft | 173 kts | 154° |
| 2026-05-06 18:32 | -22.00798 | -48.10986 | 7001 ft | 173 kts | 154° |
| 2026-05-06 18:32 | -22.01899 | -48.10475 | 7000 ft | 172 kts | 155° |
| 2026-05-06 18:32 | -22.02980 | -48.09975 | 6998 ft | 172 kts | 154° |
| 2026-05-06 18:33 | -22.04080 | -48.09458 | 7005 ft | 174 kts | 154° |
| 2026-05-06 18:33 | -22.05189 | -48.08944 | 6997 ft | 174 kts | 155° |
| 2026-05-06 18:33 | -22.06298 | -48.08429 | 7000 ft | 174 kts | 154° |
| 2026-05-06 18:33 | -22.07403 | -48.07916 | 7001 ft | 173 kts | 154° |
| 2026-05-06 18:34 | -22.08506 | -48.07401 | 7007 ft | 174 kts | 154° |
| 2026-05-06 18:34 | -22.09624 | -48.06880 | 7006 ft | 176 kts | 155° |
| 2026-05-06 18:34 | -22.10746 | -48.06359 | 7003 ft | 175 kts | 154° |
| 2026-05-06 18:34 | -22.11864 | -48.05837 | 7006 ft | 175 kts | 154° |
| 2026-05-06 18:35 | -22.12967 | -48.05325 | 7010 ft | 176 kts | 154° |
| 2026-05-06 18:35 | -22.14100 | -48.04813 | 7018 ft | 177 kts | 156° |
| 2026-05-06 18:35 | -22.15234 | -48.04294 | 7000 ft | 177 kts | 154° |
| 2026-05-06 18:35 | -22.16343 | -48.03753 | 6999 ft | 174 kts | 154° |
| 2026-05-06 18:36 | -22.17452 | -48.03233 | 7000 ft | 174 kts | 155° |
| 2026-05-06 18:36 | -22.18563 | -48.02718 | 7003 ft | 174 kts | 154° |
| 2026-05-06 18:36 | -22.19683 | -48.02199 | 7003 ft | 175 kts | 155° |
| 2026-05-06 18:36 | -22.20807 | -48.01670 | 7009 ft | 178 kts | 154° |
| 2026-05-06 18:37 | -22.21871 | -48.01046 | 6990 ft | 175 kts | 137° |
| 2026-05-06 18:37 | -22.22688 | -48.00100 | 6992 ft | 171 kts | 130° |
| 2026-05-06 18:37 | -22.23507 | -47.99171 | 6992 ft | 171 kts | 134° |
| 2026-05-06 18:37 | -22.24359 | -47.98283 | 6998 ft | 170 kts | 134° |
| 2026-05-06 18:38 | -22.25225 | -47.97393 | 6993 ft | 173 kts | 134° |
| 2026-05-06 18:38 | -22.26096 | -47.96502 | 6997 ft | 172 kts | 134° |
| 2026-05-06 18:38 | -22.26961 | -47.95609 | 7002 ft | 172 kts | 134° |
| 2026-05-06 18:38 | -22.27830 | -47.94720 | 7000 ft | 173 kts | 135° |
| 2026-05-06 18:39 | -22.28687 | -47.93838 | 7005 ft | 174 kts | 134° |
| 2026-05-06 18:39 | -22.29562 | -47.92935 | 7001 ft | 173 kts | 135° |
| 2026-05-06 18:39 | -22.30438 | -47.92044 | 7007 ft | 173 kts | 134° |
| 2026-05-06 18:40 | -22.32179 | -47.90240 | 6999 ft | 173 kts | 135° |
| 2026-05-06 18:40 | -22.33051 | -47.89342 | 7008 ft | 174 kts | 135° |
| 2026-05-06 18:40 | -22.33938 | -47.88437 | 7000 ft | 176 kts | 134° |
| 2026-05-06 18:40 | -22.34819 | -47.87532 | 6997 ft | 174 kts | 135° |
| 2026-05-06 18:41 | -22.35684 | -47.86655 | 7009 ft | 174 kts | 135° |
| 2026-05-06 18:41 | -22.36571 | -47.85761 | 6998 ft | 175 kts | 134° |
| 2026-05-06 18:41 | -22.37452 | -47.84870 | 6997 ft | 174 kts | 135° |
| 2026-05-06 18:41 | -22.38340 | -47.83978 | 6998 ft | 174 kts | 135° |
| 2026-05-06 18:42 | -22.39227 | -47.83075 | 7005 ft | 178 kts | 134° |
| 2026-05-06 18:42 | -22.40041 | -47.82068 | 6997 ft | 177 kts | 128° |
| 2026-05-06 18:42 | -22.40868 | -47.81077 | 6998 ft | 178 kts | 132° |
| 2026-05-06 18:42 | -22.41743 | -47.80150 | 6991 ft | 175 kts | 134° |
| 2026-05-06 18:43 | -22.42624 | -47.79249 | 6988 ft | 174 kts | 135° |
| 2026-05-06 18:43 | -22.43492 | -47.78341 | 7006 ft | 175 kts | 135° |
| 2026-05-06 18:43 | -22.44383 | -47.77456 | 6999 ft | 176 kts | 135° |
| 2026-05-06 18:43 | -22.45261 | -47.76549 | 6997 ft | 174 kts | 135° |
| 2026-05-06 18:44 | -22.46134 | -47.75647 | 6997 ft | 173 kts | 135° |
| 2026-05-06 18:44 | -22.47007 | -47.74753 | 6993 ft | 173 kts | 134° |
| 2026-05-06 18:44 | -22.47876 | -47.73858 | 6991 ft | 171 kts | 135° |
| 2026-05-06 18:44 | -22.48740 | -47.72968 | 6990 ft | 172 kts | 135° |
| 2026-05-06 18:45 | -22.49610 | -47.72078 | 6994 ft | 173 kts | 135° |
| 2026-05-06 18:45 | -22.50480 | -47.71182 | 6997 ft | 173 kts | 135° |
| 2026-05-06 18:45 | -22.51354 | -47.70284 | 6993 ft | 172 kts | 135° |
| 2026-05-06 18:45 | -22.52219 | -47.69395 | 7000 ft | 172 kts | 135° |
| 2026-05-06 18:46 | -22.53076 | -47.68515 | 6998 ft | 172 kts | 135° |
| 2026-05-06 18:46 | -22.53942 | -47.67627 | 6999 ft | 172 kts | 135° |
| 2026-05-06 18:46 | -22.54813 | -47.66730 | 6999 ft | 173 kts | 135° |
| 2026-05-06 18:46 | -22.55683 | -47.65830 | 6993 ft | 173 kts | 135° |
| 2026-05-06 18:47 | -22.56552 | -47.64943 | 6991 ft | 171 kts | 135° |
| 2026-05-06 18:47 | -22.57409 | -47.64059 | 6990 ft | 170 kts | 135° |
| 2026-05-06 18:47 | -22.58271 | -47.63172 | 6996 ft | 172 kts | 135° |
| 2026-05-06 18:47 | -22.59139 | -47.62276 | 6995 ft | 172 kts | 135° |
| 2026-05-06 18:48 | -22.59993 | -47.61397 | 6995 ft | 171 kts | 135° |
| 2026-05-06 18:48 | -22.60855 | -47.60514 | 6994 ft | 171 kts | 135° |
| 2026-05-06 18:48 | -22.61711 | -47.59627 | 6991 ft | 170 kts | 135° |
| 2026-05-06 18:48 | -22.62567 | -47.58743 | 6993 ft | 170 kts | 135° |
| 2026-05-06 18:49 | -22.63427 | -47.57863 | 6991 ft | 170 kts | 136° |
| 2026-05-06 18:49 | -22.64284 | -47.56979 | 6998 ft | 171 kts | 135° |
| 2026-05-06 18:49 | -22.65148 | -47.56090 | 6994 ft | 171 kts | 135° |
| 2026-05-06 18:49 | -22.66010 | -47.55200 | 6992 ft | 171 kts | 135° |
| 2026-05-06 18:50 | -22.66871 | -47.54312 | 6994 ft | 171 kts | 135° |
| 2026-05-06 18:50 | -22.67723 | -47.53430 | 6998 ft | 172 kts | 135° |
| 2026-05-06 18:50 | -22.68593 | -47.52536 | 6993 ft | 172 kts | 136° |
| 2026-05-06 18:50 | -22.69461 | -47.51641 | 6996 ft | 173 kts | 135° |
| 2026-05-06 18:51 | -22.70330 | -47.50743 | 6999 ft | 173 kts | 135° |
| 2026-05-06 18:51 | -22.71203 | -47.49844 | 6995 ft | 173 kts | 135° |
| 2026-05-06 18:51 | -22.72077 | -47.48943 | 6991 ft | 173 kts | 135° |
| 2026-05-06 18:51 | -22.72950 | -47.48042 | 6990 ft | 173 kts | 135° |
| 2026-05-06 18:52 | -22.73817 | -47.47143 | 6993 ft | 172 kts | 135° |
| 2026-05-06 18:52 | -22.74676 | -47.46255 | 6998 ft | 174 kts | 135° |
| 2026-05-06 18:52 | -22.75551 | -47.45354 | 6994 ft | 173 kts | 135° |
| 2026-05-06 18:52 | -22.76422 | -47.44453 | 6998 ft | 173 kts | 135° |
| 2026-05-06 18:53 | -22.77296 | -47.43551 | 6996 ft | 173 kts | 135° |
| 2026-05-06 18:53 | -22.78166 | -47.42654 | 6996 ft | 172 kts | 135° |
| 2026-05-06 18:53 | -22.79030 | -47.41759 | 7000 ft | 172 kts | 135° |
| 2026-05-06 18:53 | -22.79892 | -47.40868 | 6969 ft | 171 kts | 136° |
| 2026-05-06 18:54 | -22.80754 | -47.39980 | 6908 ft | 171 kts | 135° |
| 2026-05-06 18:54 | -22.81599 | -47.39103 | 6829 ft | 170 kts | 135° |
| 2026-05-06 18:54 | -22.82458 | -47.38221 | 6702 ft | 171 kts | 136° |
| 2026-05-06 18:54 | -22.83330 | -47.37351 | 6585 ft | 170 kts | 137° |
| 2026-05-06 18:55 | -22.84199 | -47.36485 | 6466 ft | 169 kts | 136° |
| 2026-05-06 18:55 | -22.84967 | -47.35523 | 6334 ft | 168 kts | 127° |
| 2026-05-06 18:55 | -22.85687 | -47.34531 | 6097 ft | 168 kts | 128° |
| 2026-05-06 18:55 | -22.86402 | -47.33528 | 5882 ft | 168 kts | 127° |
| 2026-05-06 18:56 | -22.87114 | -47.32530 | 5691 ft | 167 kts | 128° |
| 2026-05-06 18:56 | -22.87823 | -47.31535 | 5482 ft | 167 kts | 127° |
| 2026-05-06 18:56 | -22.88526 | -47.30559 | 5269 ft | 166 kts | 128° |
| 2026-05-06 18:56 | -22.89228 | -47.29563 | 5118 ft | 165 kts | 127° |
| 2026-05-06 18:57 | -22.89939 | -47.28582 | 4916 ft | 166 kts | 128° |
| 2026-05-06 18:57 | -22.90639 | -47.27594 | 4770 ft | 165 kts | 127° |
| 2026-05-06 18:57 | -22.91343 | -47.26614 | 4578 ft | 165 kts | 128° |
| 2026-05-06 18:57 | -22.92044 | -47.25625 | 4427 ft | 165 kts | 128° |
| 2026-05-06 18:58 | -22.92730 | -47.24673 | 4350 ft | 159 kts | 128° |
| 2026-05-06 18:58 | -22.93413 | -47.23707 | 4153 ft | 163 kts | 128° |
| 2026-05-06 18:58 | -22.94105 | -47.22749 | 3886 ft | 164 kts | 127° |
| 2026-05-06 18:58 | -22.94802 | -47.21763 | 3677 ft | 165 kts | 128° |
| 2026-05-06 18:59 | -22.95509 | -47.20780 | 3466 ft | 166 kts | 127° |
| 2026-05-06 18:59 | -22.96223 | -47.19788 | 3250 ft | 166 kts | 129° |
| 2026-05-06 18:59 | -22.96947 | -47.18810 | 2991 ft | 166 kts | 129° |
| 2026-05-06 18:59 | -22.97613 | -47.17903 | 2909 ft | 139 kts | 127° |
| 2026-05-06 19:00 | -22.98139 | -47.17104 | 2728 ft | 120 kts | 124° |
| 2026-05-06 19:00 | -22.98592 | -47.16459 | 2608 ft | 97 kts | 127° |
| 2026-05-06 19:00 | -22.99012 | -47.15862 | 2491 ft | 101 kts | 124° |
| 2026-05-06 19:00 | -22.99436 | -47.15263 | 2374 ft | 101 kts | 125° |
| 2026-05-06 19:01 | -22.99870 | -47.14661 | 2192 ft | 97 kts | 127° |
| 2026-05-06 19:01 | -23.00231 | -47.14167 | 2153 ft | 70 kts | 126° |
| 2026-05-06 19:01 | -23.00420 | -47.13896 | 2156 ft | 22 kts | 129° |
| 2026-05-06 19:01 | -23.00533 | -47.13773 | 2157 ft | 23 kts | 141° |
| 2026-05-06 19:02 | -23.00671 | -47.13697 | 2159 ft | 21 kts | 158° |
| 2026-05-06 19:02 | -23.00786 | -47.13661 | 2158 ft | 15 kts | 194° |
| 2026-05-06 19:02 | -23.00835 | -47.13699 | 2157 ft | 9 kts | 218° |
| 2026-05-06 19:02 | -23.00911 | -47.13702 | 2158 ft | 14 kts | 141° |
| 2026-05-06 19:03 | -23.00979 | -47.13634 | 2160 ft | 13 kts | 129° |
| 2026-05-06 19:03 | -23.00997 | -47.13610 | 2161 ft | 0 kts | 128° |